Aérodrome :







RETROUVEZ-NOUS SUR...

 
LOGIN :

S'inscrire | Disclaimer

   EN    FR    IT 

 









Légende :    VFR   VFR Marginal   IFR   IFR Intensif   IFR Très Intensif
Visi : 
Plafond : 
>= 8 km
>= 3000ft
5 à 8 km
1000 à 3000 ft
1500m à 5 km
500 à 1000 ft
800 à 1500m
200 à 500 ft
< 800m
< 200 ft
Symboles :   Orages  Brouillard  Fortes neiges  Fortes précipitations  Vent > 20 kt






- Altitude de l'aérodrome : 16 ft
- Code IATA : FDF


TFFF - Aime Cesaire

DERNIER METAR :
  • 210330Z AUTO 09011KT 9999 FEW033 25/20 Q1015

METARs EXPIRÉS :
  • 210300Z AUTO 09009KT 9999 FEW040 SCT058 25/20 Q1015
  • 210230Z AUTO 09009KT 9999 FEW030 SCT046 BKN060 25/20 Q1016
  • 210200Z AUTO 09007KT 9999 FEW030 SCT042 25/20 Q1016
  • 210130Z AUTO 11007KT 9999 FEW033 BKN068 25/20 Q1015
  • 210100Z AUTO 10008KT 9999 -RA SCT036 25/19 Q1015

TAF TAF TFFF
Valide du 20 à 18h jusqu'au 21 à 18h UTC


201730Z 2018/2118 10015KT 9999 SCT035
PROB30
TEMPO 2018/2021 4000 SHRA SCT018TCU
TEMPO 2018/2024 09020G30KT
PROB30 2109/2118 4000 SHRA SCT020TCU
TEMPO 2114/2118 09015G25KT



MET'MAP, la Météo Aéronautique d'un coup d'oeil ! - Copyright ORBIFLY Décembre 2007 - Disclaimer

ORBIFLY MET'MAP TEAM :

Programmation & Développement : Alexandra Zaïnal
Sur une idée originale de : Baudouin d'Aumeries
Assistance à la programmation : Marc-Olivier Méhu
Soutien technique & logistique : Manuel Goepfert

Contact : metmap@orbifly.com




SOURCES & CREDITS :

   NOAA